Date,TemperatureHighF,TemperatureAvgF,TemperatureLowF,DewpointHighF,DewpointAvgF,DewpointLowF,HumidityHigh,HumidityAvg,HumidityLow,PressureMaxIn,PressureMinIn,WindSpeedMaxMPH,WindSpeedAvgMPH,GustSpeedMaxMPH,PrecipitationSumIn
2013-9-1,86.5,75.8,52.9,44.7,37.2,28.0,60,26,16,30.10,29.98,11,3,12,0.00
2013-9-2,80.5,71.1,58.3,58.4,47.0,28.5,76,44,27,30.02,29.96,15,2,15,0.02
2013-9-3,87.2,78.1,63.3,55.7,48.7,43.6,74,37,27,30.08,30.00,17,2,18,0.00
2013-9-4,86.2,75.9,59.9,59.4,54.7,50.3,88,49,31,30.16,30.08,17,3,23,0.13
2013-9-5,90.0,79.3,62.4,55.5,52.1,49.3,69,40,26,30.12,29.98,15,2,16,0.00
2013-9-6,85.5,73.9,58.0,57.0,51.2,45.3,79,48,27,30.10,30.00,24,5,39,0.11
2013-9-7,82.5,68.5,60.4,57.3,52.8,44.2,80,59,27,30.09,29.97,18,3,25,0.06
2013-9-8,73.8,63.7,57.0,56.0,50.4,42.0,84,63,41,30.07,29.85,20,2,20,0.02
2013-9-9,74.2,67.8,55.9,48.9,43.5,39.0,57,42,32,30.04,29.93,16,3,16,0.00
2013-9-10,74.5,69.3,53.1,49.4,43.8,39.2,59,40,33,30.12,30.04,12,2,12,0.00
2013-9-11,79.3,69.6,50.6,47.2,41.8,38.3,76,38,24,30.23,30.11,19,4,20,0.00
2013-9-12,66.7,62.8,59.9,47.5,45.7,44.2,57,54,50,30.24,30.22,5,1,6,0.00
2013-9-13,68.4,58.3,51.4,53.1,48.2,45.5,81,70,53,30.07,29.88,10,2,16,0.00
2013-9-14,59.9,55.8,50.8,53.3,50.4,45.3,91,82,75,30.06,29.89,9,3,18,0.53
2013-9-15,64.6,59.5,53.2,54.7,52.1,50.1,91,77,65,30.13,30.02,10,2,13,0.02
2013-9-16,82.6,71.3,51.4,50.0,46.9,42.0,87,44,29,30.02,29.86,15,4,15,0.01
2013-9-17,77.5,63.1,51.6,53.4,46.4,39.9,82,57,29,29.90,29.70,22,3,24,0.26
2013-9-18,68.0,57.2,46.8,45.0,35.4,29.9,80,46,27,29.97,29.70,33,9,33,0.02
2013-9-19,62.1,54.6,43.6,38.3,35.5,30.1,70,49,35,30.10,29.95,10,2,24,0.00
2013-9-20,69.2,60.3,40.6,37.6,33.0,26.3,73,38,20,30.09,29.85,14,4,14,0.00
2013-9-21,83.7,70.9,47.3,40.6,33.4,28.0,49,27,16,29.86,29.64,15,2,15,0.00
2013-9-22,69.9,63.5,56.8,45.8,38.1,30.2,50,39,29,29.67,29.56,18,3,23,0.00
2013-9-23,67.7,61.5,47.5,39.5,28.9,24.2,70,30,21,29.93,29.67,25,8,25,0.00
2013-9-24,75.3,63.5,43.0,36.8,32.3,25.5,59,32,19,29.94,29.66,23,7,23,0.00
2013-9-25,56.9,44.5,41.6,42.5,39.2,33.5,87,82,43,29.71,29.62,13,2,27,0.60
2013-9-26,46.1,41.1,36.8,35.8,32.9,30.6,88,73,62,29.91,29.67,20,6,20,0.00
2013-9-27,42.5,37.2,32.9,33.3,28.9,25.0,82,72,59,29.92,29.86,12,2,12,0.24
2013-9-28,57.9,52.5,39.2,35.2,31.9,24.6,60,46,40,29.94,29.87,23,6,23,0.00
2013-9-29,68.3,59.8,45.9,38.0,34.4,28.8,59,39,30,29.89,29.71,24,4,24,0.00
2013-9-30,69.7,59.0,48.6,43.8,38.1,29.1,65,47,33,29.85,29.61,27,5,27,0.00